createdAt,value
2023-05-03T02:17:19.501Z,66.80
2023-05-03T02:19:49.116Z,67.30
2023-05-03T02:22:18.903Z,66.20
2023-05-03T02:24:49.048Z,66.60
2023-05-03T02:27:18.921Z,66.00
2023-05-03T02:29:49.670Z,65.70
2023-05-03T02:32:19.176Z,66.10
2023-05-03T02:34:50.092Z,64.90
2023-05-03T02:37:19.554Z,63.90
2023-05-03T02:39:48.943Z,63.00
2023-05-03T02:42:18.737Z,63.20
2023-05-03T02:44:48.768Z,63.70
2023-05-03T02:47:18.173Z,63.90
2023-05-03T02:49:47.613Z,62.70
2023-05-03T02:52:17.212Z,62.30
2023-05-03T02:54:48.649Z,62.00
2023-05-03T02:57:18.144Z,61.40
2023-05-03T02:59:47.481Z,61.20
2023-05-03T03:02:16.993Z,61.40
2023-05-03T03:04:46.435Z,62.00
2023-05-03T03:07:16.012Z,64.00
2023-05-03T03:09:45.463Z,63.80
2023-05-03T03:12:15.105Z,62.90
2023-05-03T03:14:47.267Z,63.40
2023-05-03T03:17:16.884Z,60.60
2023-05-03T03:19:46.617Z,59.50
2023-05-03T03:22:16.110Z,59.30
2023-05-03T03:24:45.630Z,58.90
2023-05-03T03:27:15.178Z,58.50
2023-05-03T03:29:44.816Z,57.90
2023-05-03T03:32:14.242Z,57.50
2023-05-03T03:34:43.773Z,57.70
2023-05-03T03:37:13.706Z,57.70
2023-05-03T03:39:43.344Z,58.20
2023-05-03T03:42:15.038Z,58.70
2023-05-03T03:44:44.557Z,59.30
2023-05-03T03:47:14.242Z,58.50
2023-05-03T03:49:43.837Z,58.80
2023-05-03T03:52:13.438Z,58.70
2023-05-03T03:54:42.953Z,59.30
2023-05-03T03:57:12.404Z,60.80
2023-05-03T03:59:42.682Z,63.30
2023-05-03T04:02:12.370Z,63.10
2023-05-03T04:04:41.952Z,63.10
2023-05-03T04:07:11.507Z,63.80
2023-05-03T04:09:40.962Z,63.90
2023-05-03T04:12:10.411Z,63.80
2023-05-03T04:14:40.151Z,64.50
2023-05-03T04:17:09.670Z,64.00
2023-05-03T04:19:40.237Z,64.20
2023-05-03T04:22:09.991Z,64.40
2023-05-03T04:24:41.313Z,63.90
2023-05-03T04:27:10.800Z,63.70
2023-05-03T04:29:40.282Z,63.00
2023-05-03T04:32:10.072Z,62.70
2023-05-03T04:34:40.204Z,61.50
2023-05-03T04:37:10.634Z,60.60
2023-05-03T04:39:40.118Z,58.30
2023-05-03T04:42:10.686Z,57.70
2023-05-03T04:44:40.124Z,57.40
2023-05-03T04:47:09.563Z,56.30
2023-05-03T04:49:40.426Z,55.00
2023-05-03T04:52:12.988Z,54.90
2023-05-03T04:54:42.900Z,54.70
2023-05-03T04:57:12.626Z,54.50
2023-05-03T04:59:42.036Z,55.70
2023-05-03T05:02:11.534Z,55.50
2023-05-03T05:04:41.259Z,55.60
2023-05-03T05:07:10.679Z,56.20
2023-05-03T05:09:40.203Z,57.20
2023-05-03T05:12:09.961Z,57.30
2023-05-03T05:14:39.378Z,55.90
2023-05-03T05:17:09.192Z,55.40
2023-05-03T05:19:38.711Z,56.60
2023-05-03T05:22:08.203Z,57.30
2023-05-03T05:24:38.079Z,57.80
2023-05-03T05:27:08.293Z,58.40
2023-05-03T05:29:37.717Z,59.10
2023-05-03T05:32:07.729Z,60.20
2023-05-03T05:34:44.985Z,60.20
2023-05-03T07:49:02.118Z,64.50
2023-05-03T07:51:31.586Z,64.80
2023-05-03T07:54:01.175Z,64.60
2023-05-03T07:56:30.776Z,64.60
2023-05-03T07:59:08.464Z,64.90
2023-05-03T08:01:39.812Z,65.30
2023-05-03T08:04:10.034Z,64.00
2023-05-03T08:06:40.435Z,64.50
2023-05-03T08:09:10.984Z,64.30
2023-05-03T08:11:43.172Z,63.50
2023-05-03T08:14:15.064Z,64.00
2023-05-03T08:16:44.495Z,64.60
2023-05-03T08:19:13.857Z,63.80
2023-05-03T08:21:43.248Z,64.00
2023-05-03T08:24:15.918Z,64.00
2023-05-03T08:26:46.991Z,64.50
2023-05-03T08:29:17.095Z,65.00
2023-05-03T08:31:46.931Z,64.10
2023-05-03T08:34:16.321Z,64.20
2023-05-03T08:36:46.700Z,64.20
2023-05-03T08:39:20.724Z,64.20
2023-05-03T08:41:50.260Z,64.40
2023-05-03T08:44:26.314Z,65.00
2023-05-03T08:46:55.845Z,65.80
2023-05-03T08:49:26.417Z,66.10
2023-05-03T08:51:57.660Z,66.50
2023-05-03T08:54:27.105Z,66.90
2023-05-03T08:56:56.913Z,66.90
2023-05-03T08:59:29.358Z,67.30
2023-05-03T09:01:58.806Z,67.40
2023-05-03T09:04:37.437Z,67.40
2023-05-03T09:07:10.985Z,67.90
2023-05-03T09:09:41.188Z,67.90
2023-05-03T09:12:10.558Z,68.40
2023-05-03T09:14:49.402Z,69.80
2023-05-03T09:17:24.056Z,70.30
2023-05-03T09:19:57.830Z,71.30
2023-05-03T09:22:31.021Z,71.80
2023-05-03T09:25:02.667Z,71.60
2023-05-03T09:27:32.041Z,71.40
2023-05-03T09:30:18.865Z,71.30
2023-05-03T09:32:51.979Z,71.30
2023-05-03T09:35:22.459Z,71.10
2023-05-03T09:37:52.838Z,71.20
2023-05-03T09:40:22.566Z,71.90
2023-05-03T09:43:14.664Z,72.10
2023-05-03T09:45:44.236Z,71.70
2023-05-03T09:48:14.505Z,71.40
2023-05-03T09:50:45.081Z,71.00
2023-05-03T09:53:16.040Z,70.90
2023-05-03T09:55:45.611Z,70.80
2023-05-03T09:58:15.784Z,70.30
2023-05-03T10:00:50.272Z,70.10
2023-05-03T10:03:26.775Z,69.60
2023-05-03T10:05:56.892Z,68.80
2023-05-03T10:08:29.388Z,68.70
2023-05-03T10:10:59.264Z,68.80
2023-05-03T10:13:30.867Z,70.10
2023-05-03T10:16:04.033Z,70.50
2023-05-03T10:18:35.306Z,71.80
2023-05-03T10:21:10.473Z,72.70
2023-05-03T10:23:59.652Z,72.30
2023-05-03T10:26:29.504Z,73.50
2023-05-03T10:29:00.762Z,74.30
2023-05-03T10:31:48.394Z,74.60
2023-05-03T10:34:28.509Z,75.40
2023-05-03T10:36:58.556Z,74.90
2023-05-03T10:39:29.464Z,75.70
2023-05-03T10:42:01.957Z,75.50
2023-05-03T10:44:37.558Z,75.70
2023-05-03T10:47:16.994Z,73.60
2023-05-03T10:49:46.897Z,70.80
2023-05-03T10:52:36.495Z,69.70
2023-05-03T10:55:11.858Z,67.90
2023-05-03T10:57:44.213Z,67.20
2023-05-03T11:00:30.558Z,66.20
2023-05-03T11:03:06.328Z,66.10
2023-05-03T11:05:36.136Z,65.10
2023-05-03T11:08:13.883Z,66.10
2023-05-03T11:10:43.967Z,67.00
2023-05-03T11:13:13.975Z,66.60
2023-05-03T11:15:44.459Z,64.90
2023-05-03T11:18:14.833Z,66.10
2023-05-03T11:20:44.374Z,66.40
2023-05-03T11:23:14.202Z,65.50
2023-05-03T11:25:44.398Z,64.50
2023-05-03T11:28:14.154Z,63.80
2023-05-03T11:30:43.900Z,63.20
2023-05-03T11:33:13.375Z,63.00
2023-05-03T11:35:44.269Z,63.80
2023-05-03T11:38:13.656Z,63.90
2023-05-03T11:40:43.207Z,64.40
2023-05-03T11:43:13.417Z,64.40
2023-05-03T11:45:46.158Z,64.00
2023-05-03T11:48:16.689Z,64.30
2023-05-03T11:50:52.889Z,65.00
2023-05-03T11:53:22.337Z,64.90
2023-05-03T11:55:53.300Z,65.10
2023-05-03T11:58:25.393Z,64.70
2023-05-03T12:00:57.512Z,65.10
2023-05-03T12:03:31.361Z,65.80
2023-05-03T12:06:02.787Z,66.10
2023-05-03T12:08:36.396Z,65.40
2023-05-03T12:11:09.962Z,64.50
2023-05-03T12:13:40.964Z,64.40
2023-05-03T12:16:14.620Z,65.50
2023-05-03T12:18:55.233Z,65.60
2023-05-03T12:21:31.626Z,64.80
2023-05-03T12:24:02.462Z,65.10
2023-05-03T12:26:33.745Z,64.30
2023-05-03T12:29:06.454Z,64.20
2023-05-03T12:31:39.092Z,62.90
2023-05-03T12:36:49.359Z,62.90
2023-05-03T12:39:21.710Z,63.40
2023-05-03T12:44:24.053Z,63.60
2023-05-03T12:46:54.343Z,64.10
2023-05-03T12:49:24.716Z,63.60
2023-05-03T12:52:11.051Z,63.80
2023-05-03T12:54:48.263Z,62.80
2023-05-03T12:57:23.237Z,62.70
2023-05-03T13:00:02.812Z,63.10
2023-05-03T13:05:11.763Z,63.60
2023-05-03T13:07:45.379Z,63.70
2023-05-03T13:12:48.745Z,63.80
2023-05-03T13:15:18.570Z,64.20
2023-05-03T13:17:48.568Z,64.30
2023-05-03T13:20:19.983Z,64.90
2023-05-03T13:22:50.882Z,65.70
2023-05-03T13:25:20.771Z,66.40
2023-05-03T13:27:51.805Z,66.50
2023-05-03T13:30:25.679Z,67.20
2023-05-03T13:32:55.059Z,67.40
2023-05-03T13:35:24.822Z,67.90
2023-05-03T13:37:55.389Z,67.80
2023-05-03T13:40:26.164Z,66.30
2023-05-03T13:42:56.025Z,66.40
2023-05-03T13:45:25.375Z,66.90
2023-05-03T13:48:11.823Z,67.30
2023-05-03T13:50:44.810Z,68.10
2023-05-03T13:53:14.701Z,67.80
2023-05-03T13:55:44.072Z,68.00
2023-05-03T13:58:13.917Z,67.00
2023-05-03T14:00:43.745Z,66.40
2023-05-03T14:03:13.678Z,65.20
2023-05-03T14:05:43.569Z,64.50
2023-05-03T14:08:14.247Z,63.70
2023-05-03T14:10:44.653Z,62.50
2023-05-03T14:13:14.027Z,60.20
2023-05-03T14:15:45.386Z,61.30
2023-05-03T14:18:15.006Z,61.90
2023-05-03T14:20:45.376Z,61.90
2023-05-03T14:23:15.844Z,62.80
2023-05-03T14:25:46.090Z,63.60
2023-05-03T14:28:15.473Z,63.80
2023-05-03T14:30:44.806Z,64.30
2023-05-03T14:33:15.317Z,64.90
2023-05-03T14:35:44.662Z,64.90
2023-05-03T14:38:14.490Z,65.80
2023-05-03T14:40:45.610Z,66.70
2023-05-03T14:43:16.414Z,66.80
2023-05-03T14:45:46.860Z,66.90
2023-05-03T14:48:19.794Z,67.50
2023-05-03T14:50:56.265Z,67.30
2023-05-03T14:53:25.848Z,67.30
2023-05-03T14:55:56.440Z,67.60
2023-05-03T14:58:26.284Z,67.70
2023-05-03T15:00:55.700Z,67.90
2023-05-03T15:03:26.346Z,68.20
2023-05-03T15:05:55.872Z,68.60
2023-05-03T15:08:25.610Z,68.60
2023-05-03T15:10:55.367Z,68.40
2023-05-03T15:13:26.161Z,68.30
2023-05-03T15:15:55.643Z,68.40
2023-05-03T15:18:26.179Z,68.80
2023-05-03T15:20:55.939Z,68.90
2023-05-03T15:23:25.408Z,69.10
2023-05-03T15:25:54.962Z,69.60
2023-05-03T15:28:24.773Z,69.60
2023-05-03T15:30:54.580Z,70.00
2023-05-03T15:33:24.313Z,70.10
2023-05-03T15:35:54.100Z,70.00
2023-05-03T15:38:23.467Z,70.20
2023-05-03T15:40:53.290Z,70.90
2023-05-03T15:43:22.769Z,71.00
2023-05-03T15:45:53.181Z,70.80
2023-05-03T15:48:22.968Z,70.90
2023-05-03T15:50:53.161Z,71.10
2023-05-03T15:53:23.127Z,71.20
2023-05-03T15:55:53.976Z,71.10
2023-05-03T15:58:23.518Z,71.00
2023-05-03T16:00:54.240Z,71.40
2023-05-03T16:03:24.010Z,71.10
2023-05-03T16:05:53.321Z,70.80
2023-05-03T16:08:23.126Z,71.10
2023-05-03T16:10:52.989Z,71.60
2023-05-03T16:13:22.724Z,71.70
2023-05-03T16:15:57.855Z,72.00
2023-05-03T16:18:28.908Z,71.80
2023-05-03T16:20:58.710Z,72.20
2023-05-03T16:23:28.781Z,72.10
2023-05-03T16:25:58.647Z,72.40
2023-05-03T16:28:28.756Z,72.40
2023-05-03T16:30:58.692Z,72.40
2023-05-03T16:33:28.496Z,72.60
2023-05-03T16:35:58.649Z,72.80
2023-05-03T16:38:32.435Z,72.90
2023-05-03T16:41:02.299Z,72.80
2023-05-03T16:43:32.315Z,72.80
2023-05-03T16:46:02.359Z,72.60
2023-05-03T16:48:32.583Z,73.20
2023-05-03T16:51:02.169Z,73.50
2023-05-03T16:53:32.888Z,73.30
2023-05-03T16:56:02.622Z,73.70
2023-05-03T16:58:32.195Z,73.70
2023-05-03T17:01:01.765Z,73.60
2023-05-03T17:03:31.734Z,73.50
2023-05-03T17:06:03.630Z,73.50
2023-05-03T17:08:33.726Z,73.90
2023-05-03T17:11:05.220Z,73.90
2023-05-03T17:13:34.629Z,74.00
2023-05-03T17:16:12.834Z,73.90
2023-05-03T17:18:43.503Z,73.90
2023-05-03T17:21:13.027Z,74.00
2023-05-03T17:23:42.998Z,73.90
2023-05-03T17:26:13.364Z,74.10
2023-05-03T17:28:43.547Z,73.80
2023-05-03T17:31:13.528Z,74.10
2023-05-03T17:33:43.300Z,73.90
2023-05-03T17:36:13.228Z,74.30
2023-05-03T17:38:42.701Z,74.30
2023-05-03T17:41:13.600Z,74.70
2023-05-03T17:43:43.478Z,74.50
2023-05-03T17:46:14.614Z,74.60
2023-05-03T17:48:51.527Z,74.50
2023-05-03T17:51:21.523Z,74.20
2023-05-03T17:53:50.947Z,74.70
2023-05-03T17:56:22.125Z,74.20
2023-05-03T17:58:51.628Z,74.20
2023-05-03T18:01:21.070Z,74.70
2023-05-03T18:03:51.858Z,74.70
2023-05-03T18:06:21.473Z,74.70
2023-05-03T18:08:51.240Z,74.90
2023-05-03T18:11:20.666Z,75.20
2023-05-03T18:13:50.063Z,75.40
2023-05-03T18:16:19.426Z,75.00
2023-05-03T18:18:48.912Z,75.20
2023-05-03T18:21:20.540Z,75.40
2023-05-03T18:23:49.894Z,75.50
2023-05-03T18:26:19.812Z,75.50
2023-05-03T18:28:50.194Z,75.70
2023-05-03T18:31:21.212Z,76.00
2023-05-03T18:33:50.605Z,76.00
2023-05-03T18:36:19.973Z,75.50
2023-05-03T18:38:50.213Z,75.70
2023-05-03T18:41:19.664Z,75.80
2023-05-03T18:43:49.447Z,75.60
2023-05-03T18:46:19.995Z,75.60
2023-05-03T18:48:49.954Z,75.70
2023-05-03T18:51:20.376Z,75.70
2023-05-03T18:53:49.723Z,75.80
2023-05-03T18:56:19.101Z,75.70
2023-05-03T18:58:51.628Z,76.00
2023-05-03T19:01:21.035Z,76.20
2023-05-03T19:03:50.762Z,76.00
2023-05-03T19:06:20.896Z,76.00
2023-05-03T19:08:51.243Z,76.00
2023-05-03T19:11:22.090Z,76.30
2023-05-03T19:13:51.547Z,76.50
2023-05-03T19:16:21.444Z,76.40
2023-05-03T19:18:50.797Z,76.40
2023-05-03T19:21:21.273Z,76.60
2023-05-03T19:23:50.636Z,76.50
2023-05-03T19:26:20.040Z,76.80
2023-05-03T19:28:49.465Z,76.60
2023-05-03T19:31:19.602Z,76.30
2023-05-03T19:33:49.023Z,76.50
2023-05-03T19:36:18.408Z,76.50
2023-05-03T19:38:47.890Z,76.80
2023-05-03T19:41:17.254Z,76.80
2023-05-03T19:43:46.826Z,76.60
2023-05-03T19:46:18.393Z,76.30
2023-05-03T19:48:47.840Z,76.60
2023-05-03T19:51:18.279Z,76.30
2023-05-03T19:53:48.925Z,76.80
2023-05-03T19:56:19.940Z,76.70
2023-05-03T19:58:49.529Z,76.30
2023-05-03T20:01:19.099Z,76.60
2023-05-03T20:03:48.891Z,76.90
2023-05-03T20:06:18.492Z,76.80
2023-05-03T20:08:47.883Z,77.00
2023-05-03T20:11:17.321Z,77.40
2023-05-03T20:13:47.070Z,77.50
2023-05-03T20:16:18.346Z,77.30
2023-05-03T20:18:50.184Z,77.00
2023-05-03T20:21:19.907Z,77.30
2023-05-03T20:23:50.872Z,77.20
2023-05-03T20:26:20.627Z,77.30
2023-05-03T20:28:50.031Z,77.30
2023-05-03T20:31:19.527Z,77.10
2023-05-03T20:33:49.350Z,77.00
2023-05-03T20:36:19.906Z,76.60
2023-05-03T20:38:49.639Z,76.60
2023-05-03T20:41:20.941Z,76.70
2023-05-03T20:43:50.304Z,77.10
2023-05-03T20:46:20.301Z,77.00
2023-05-03T20:48:49.896Z,77.30
2023-05-03T20:51:19.319Z,77.30
2023-05-03T20:53:48.709Z,77.10
2023-05-03T20:56:18.341Z,77.50
2023-05-03T20:58:47.798Z,77.60
2023-05-03T21:01:17.284Z,77.50
2023-05-03T21:03:46.793Z,77.30
2023-05-03T21:06:16.244Z,77.20
2023-05-03T21:08:45.663Z,77.50
2023-05-03T21:11:15.245Z,77.80
2023-05-03T21:13:44.742Z,77.70
2023-05-03T21:16:14.248Z,77.80
2023-05-03T21:18:43.709Z,77.60
2023-05-03T21:21:13.131Z,77.60
2023-05-03T21:23:42.722Z,77.80
2023-05-03T21:26:12.230Z,77.80
2023-05-03T21:28:41.605Z,78.00
2023-05-03T21:31:11.297Z,78.20
2023-05-03T21:33:40.868Z,78.10
2023-05-03T21:36:11.230Z,77.90
2023-05-03T21:38:41.427Z,78.00
2023-05-03T21:41:10.907Z,78.00
2023-05-03T21:43:40.264Z,78.10
2023-05-03T21:46:10.379Z,78.00
2023-05-03T21:48:39.967Z,78.20
2023-05-03T21:51:10.229Z,78.20
2023-05-03T21:53:39.791Z,78.30
2023-05-03T21:56:09.314Z,78.10
2023-05-03T21:58:38.676Z,78.50
2023-05-03T22:01:08.123Z,78.50
2023-05-03T22:03:38.192Z,78.60
2023-05-03T22:06:09.246Z,78.40
2023-05-03T22:08:39.127Z,78.50
2023-05-03T22:11:09.089Z,78.00
2023-05-03T22:13:54.432Z,76.80
2023-05-03T22:16:28.733Z,76.50
2023-05-03T22:18:58.110Z,76.40
2023-05-03T22:21:27.856Z,76.30
2023-05-03T22:23:57.366Z,76.30
2023-05-03T22:26:26.736Z,76.50
2023-05-03T22:28:56.216Z,76.50
2023-05-03T22:31:26.492Z,76.00
2023-05-03T22:33:56.087Z,75.00
2023-05-03T22:36:25.568Z,74.50
2023-05-03T22:39:02.231Z,74.10
2023-05-03T22:41:31.617Z,73.40
2023-05-03T22:44:00.981Z,73.30
2023-05-03T22:46:30.753Z,73.30
2023-05-03T22:49:00.140Z,73.30
2023-05-03T22:51:29.817Z,73.50
2023-05-03T22:53:59.186Z,70.70
2023-05-03T22:56:29.296Z,70.10
2023-05-03T22:58:58.733Z,68.70
2023-05-03T23:01:28.995Z,68.50
2023-05-03T23:03:59.042Z,68.30
2023-05-03T23:06:28.453Z,68.30
2023-05-03T23:08:58.185Z,66.40
2023-05-03T23:11:27.707Z,65.90
2023-05-03T23:13:57.218Z,65.50
2023-05-03T23:16:27.014Z,65.20
2023-05-03T23:18:56.502Z,65.00
2023-05-03T23:21:26.450Z,65.30
2023-05-03T23:23:55.861Z,65.40
2023-05-03T23:26:25.352Z,65.60
2023-05-03T23:28:55.554Z,65.10
2023-05-03T23:31:25.318Z,64.90
2023-05-03T23:33:55.185Z,64.50
2023-05-03T23:36:24.661Z,64.50
2023-05-03T23:38:54.109Z,63.60
2023-05-03T23:41:23.525Z,64.00
2023-05-03T23:43:53.363Z,63.30
2023-05-03T23:46:22.759Z,62.90
2023-05-03T23:48:52.295Z,62.70
2023-05-03T23:51:21.678Z,63.00
